sensor_id;sensor_type;location;lat;lon;timestamp;P1;durP1;ratioP1;P2;durP2;ratioP2
4519;SDS011;2272;49.226;8.108;2022-09-01T00:02:18;5.23;;;4.20;;
4519;SDS011;2272;49.226;8.108;2022-09-01T00:04:45;6.00;;;4.87;;
4519;SDS011;2272;49.226;8.108;2022-09-01T00:07:13;8.73;;;4.50;;
4519;SDS011;2272;49.226;8.108;2022-09-01T00:09:40;4.30;;;3.90;;
4519;SDS011;2272;49.226;8.108;2022-09-01T00:12:07;5.53;;;5.03;;
4519;SDS011;2272;49.226;8.108;2022-09-01T00:14:36;8.13;;;5.20;;
4519;SDS011;2272;49.226;8.108;2022-09-01T00:17:06;4.53;;;4.27;;
4519;SDS011;2272;49.226;8.108;2022-09-01T00:19:35;5.03;;;4.53;;
4519;SDS011;2272;49.226;8.108;2022-09-01T00:22:03;5.47;;;5.07;;
4519;SDS011;2272;49.226;8.108;2022-09-01T00:24:32;4.87;;;4.47;;
4519;SDS011;2272;49.226;8.108;2022-09-01T00:26:59;8.47;;;5.30;;
4519;SDS011;2272;49.226;8.108;2022-09-01T00:29:25;5.27;;;4.80;;
4519;SDS011;2272;49.226;8.108;2022-09-01T00:31:52;5.30;;;4.80;;
4519;SDS011;2272;49.226;8.108;2022-09-01T00:34:19;6.70;;;4.80;;
4519;SDS011;2272;49.226;8.108;2022-09-01T00:36:47;5.00;;;4.60;;
4519;SDS011;2272;49.226;8.108;2022-09-01T00:39:14;5.70;;;4.73;;
4519;SDS011;2272;49.226;8.108;2022-09-01T00:41:42;4.10;;;3.83;;
4519;SDS011;2272;49.226;8.108;2022-09-01T00:44:13;5.20;;;4.70;;
4519;SDS011;2272;49.226;8.108;2022-09-01T00:46:44;6.73;;;5.03;;
4519;SDS011;2272;49.226;8.108;2022-09-01T00:49:15;7.80;;;4.93;;
4519;SDS011;2272;49.226;8.108;2022-09-01T00:51:45;5.27;;;4.77;;
4519;SDS011;2272;49.226;8.108;2022-09-01T00:54:15;4.50;;;4.20;;
4519;SDS011;2272;49.226;8.108;2022-09-01T00:56:46;5.80;;;5.13;;
4519;SDS011;2272;49.226;8.108;2022-09-01T00:59:13;5.53;;;4.67;;
4519;SDS011;2272;49.226;8.108;2022-09-01T01:01:42;8.60;;;4.57;;
4519;SDS011;2272;49.226;8.108;2022-09-01T01:04:09;10.23;;;4.73;;
4519;SDS011;2272;49.226;8.108;2022-09-01T01:06:39;6.97;;;5.20;;
4519;SDS011;2272;49.226;8.108;2022-09-01T01:09:07;6.30;;;5.70;;
4519;SDS011;2272;49.226;8.108;2022-09-01T01:11:35;8.17;;;5.27;;
4519;SDS011;2272;49.226;8.108;2022-09-01T01:14:04;6.60;;;4.70;;
4519;SDS011;2272;49.226;8.108;2022-09-01T01:16:36;6.37;;;4.83;;
4519;SDS011;2272;49.226;8.108;2022-09-01T01:19:05;5.23;;;4.83;;
4519;SDS011;2272;49.226;8.108;2022-09-01T01:21:55;6.10;;;5.50;;
4519;SDS011;2272;49.226;8.108;2022-09-01T01:24:41;10.47;;;5.57;;
4519;SDS011;2272;49.226;8.108;2022-09-01T01:27:08;5.93;;;5.43;;
4519;SDS011;2272;49.226;8.108;2022-09-01T01:29:35;5.60;;;5.10;;
4519;SDS011;2272;49.226;8.108;2022-09-01T01:32:04;5.63;;;5.17;;
4519;SDS011;2272;49.226;8.108;2022-09-01T01:34:36;4.90;;;4.57;;
4519;SDS011;2272;49.226;8.108;2022-09-01T01:37:06;9.80;;;6.10;;
4519;SDS011;2272;49.226;8.108;2022-09-01T01:39:35;5.87;;;5.47;;
4519;SDS011;2272;49.226;8.108;2022-09-01T01:42:06;10.03;;;5.07;;
4519;SDS011;2272;49.226;8.108;2022-09-01T01:44:33;5.63;;;5.07;;
4519;SDS011;2272;49.226;8.108;2022-09-01T01:47:01;6.17;;;5.67;;
4519;SDS011;2272;49.226;8.108;2022-09-01T01:49:34;5.80;;;5.40;;
4519;SDS011;2272;49.226;8.108;2022-09-01T01:52:01;10.03;;;5.20;;
4519;SDS011;2272;49.226;8.108;2022-09-01T01:54:29;6.73;;;5.30;;
4519;SDS011;2272;49.226;8.108;2022-09-01T01:56:56;6.33;;;5.73;;
4519;SDS011;2272;49.226;8.108;2022-09-01T01:59:25;6.60;;;4.67;;
4519;SDS011;2272;49.226;8.108;2022-09-01T02:01:53;7.50;;;5.03;;
4519;SDS011;2272;49.226;8.108;2022-09-01T02:04:20;6.30;;;5.67;;
4519;SDS011;2272;49.226;8.108;2022-09-01T02:06:48;6.70;;;5.27;;
4519;SDS011;2272;49.226;8.108;2022-09-01T02:09:16;6.07;;;5.47;;
4519;SDS011;2272;49.226;8.108;2022-09-01T02:11:47;5.37;;;4.97;;
4519;SDS011;2272;49.226;8.108;2022-09-01T02:14:18;5.53;;;5.13;;
4519;SDS011;2272;49.226;8.108;2022-09-01T02:16:47;5.60;;;5.10;;
4519;SDS011;2272;49.226;8.108;2022-09-01T02:19:14;7.00;;;6.40;;
4519;SDS011;2272;49.226;8.108;2022-09-01T02:21:44;6.47;;;5.57;;
4519;SDS011;2272;49.226;8.108;2022-09-01T02:24:18;10.10;;;6.20;;
4519;SDS011;2272;49.226;8.108;2022-09-01T02:26:45;5.33;;;4.93;;
4519;SDS011;2272;49.226;8.108;2022-09-01T02:29:13;5.77;;;5.27;;
4519;SDS011;2272;49.226;8.108;2022-09-01T02:31:48;6.13;;;4.87;;
4519;SDS011;2272;49.226;8.108;2022-09-01T02:34:16;6.20;;;5.60;;
4519;SDS011;2272;49.226;8.108;2022-09-01T02:36:44;7.90;;;5.47;;
4519;SDS011;2272;49.226;8.108;2022-09-01T02:39:13;5.43;;;4.93;;
4519;SDS011;2272;49.226;8.108;2022-09-01T02:41:40;7.87;;;4.97;;
4519;SDS011;2272;49.226;8.108;2022-09-01T02:44:06;6.00;;;5.40;;
4519;SDS011;2272;49.226;8.108;2022-09-01T02:46:35;5.67;;;5.27;;
4519;SDS011;2272;49.226;8.108;2022-09-01T02:49:07;8.63;;;5.53;;
4519;SDS011;2272;49.226;8.108;2022-09-01T02:51:39;6.50;;;5.90;;
4519;SDS011;2272;49.226;8.108;2022-09-01T02:54:07;8.60;;;5.90;;
4519;SDS011;2272;49.226;8.108;2022-09-01T02:56:34;8.57;;;5.87;;
4519;SDS011;2272;49.226;8.108;2022-09-01T02:59:00;6.17;;;5.57;;
4519;SDS011;2272;49.226;8.108;2022-09-01T03:01:29;6.10;;;5.60;;
4519;SDS011;2272;49.226;8.108;2022-09-01T03:03:57;5.23;;;4.83;;
4519;SDS011;2272;49.226;8.108;2022-09-01T03:06:27;5.87;;;5.33;;
4519;SDS011;2272;49.226;8.108;2022-09-01T03:08:58;5.10;;;4.70;;
4519;SDS011;2272;49.226;8.108;2022-09-01T03:11:26;5.53;;;5.03;;
4519;SDS011;2272;49.226;8.108;2022-09-01T03:13:54;6.27;;;4.83;;
4519;SDS011;2272;49.226;8.108;2022-09-01T03:16:21;6.20;;;5.70;;
4519;SDS011;2272;49.226;8.108;2022-09-01T03:18:48;7.00;;;5.40;;
4519;SDS011;2272;49.226;8.108;2022-09-01T03:21:16;5.17;;;4.77;;
4519;SDS011;2272;49.226;8.108;2022-09-01T03:23:45;6.50;;;5.13;;
4519;SDS011;2272;49.226;8.108;2022-09-01T03:26:13;5.73;;;5.23;;
4519;SDS011;2272;49.226;8.108;2022-09-01T03:28:42;5.50;;;5.10;;
4519;SDS011;2272;49.226;8.108;2022-09-01T03:31:09;5.73;;;5.30;;
4519;SDS011;2272;49.226;8.108;2022-09-01T03:33:36;5.43;;;5.03;;
4519;SDS011;2272;49.226;8.108;2022-09-01T03:36:04;5.10;;;4.67;;
4519;SDS011;2272;49.226;8.108;2022-09-01T03:38:31;8.07;;;5.20;;
4519;SDS011;2272;49.226;8.108;2022-09-01T03:41:01;5.77;;;5.33;;
4519;SDS011;2272;49.226;8.108;2022-09-01T03:43:30;7.63;;;5.20;;
4519;SDS011;2272;49.226;8.108;2022-09-01T03:45:58;13.37;;;11.00;;
4519;SDS011;2272;49.226;8.108;2022-09-01T03:48:25;11.53;;;5.43;;
4519;SDS011;2272;49.226;8.108;2022-09-01T03:50:54;5.97;;;5.47;;
4519;SDS011;2272;49.226;8.108;2022-09-01T03:53:22;5.40;;;4.97;;
4519;SDS011;2272;49.226;8.108;2022-09-01T03:55:51;6.77;;;5.20;;
4519;SDS011;2272;49.226;8.108;2022-09-01T03:58:20;5.70;;;5.10;;
4519;SDS011;2272;49.226;8.108;2022-09-01T04:00:48;8.10;;;4.90;;
4519;SDS011;2272;49.226;8.108;2022-09-01T04:03:19;8.00;;;5.80;;
4519;SDS011;2272;49.226;8.108;2022-09-01T04:05:47;7.77;;;5.60;;
4519;SDS011;2272;49.226;8.108;2022-09-01T04:08:16;5.93;;;5.23;;
4519;SDS011;2272;49.226;8.108;2022-09-01T04:10:44;5.13;;;4.60;;
4519;SDS011;2272;49.226;8.108;2022-09-01T04:13:13;6.00;;;5.50;;
4519;SDS011;2272;49.226;8.108;2022-09-01T04:15:42;5.40;;;4.90;;
4519;SDS011;2272;49.226;8.108;2022-09-01T04:18:09;6.10;;;5.50;;
4519;SDS011;2272;49.226;8.108;2022-09-01T04:20:44;7.43;;;5.33;;
4519;SDS011;2272;49.226;8.108;2022-09-01T04:23:14;5.07;;;4.67;;
4519;SDS011;2272;49.226;8.108;2022-09-01T04:25:44;8.07;;;5.00;;
4519;SDS011;2272;49.226;8.108;2022-09-01T04:28:14;5.13;;;4.63;;
4519;SDS011;2272;49.226;8.108;2022-09-01T04:30:48;4.80;;;4.50;;
4519;SDS011;2272;49.226;8.108;2022-09-01T04:33:17;5.60;;;5.10;;
4519;SDS011;2272;49.226;8.108;2022-09-01T04:35:44;6.17;;;5.57;;
4519;SDS011;2272;49.226;8.108;2022-09-01T04:38:11;6.00;;;5.40;;
4519;SDS011;2272;49.226;8.108;2022-09-01T04:40:40;9.87;;;5.90;;
4519;SDS011;2272;49.226;8.108;2022-09-01T04:43:07;5.73;;;5.33;;
4519;SDS011;2272;49.226;8.108;2022-09-01T04:45:34;5.53;;;5.13;;
4519;SDS011;2272;49.226;8.108;2022-09-01T04:48:03;6.20;;;5.60;;
4519;SDS011;2272;49.226;8.108;2022-09-01T04:50:32;7.77;;;5.73;;
4519;SDS011;2272;49.226;8.108;2022-09-01T04:53:02;6.20;;;5.57;;
4519;SDS011;2272;49.226;8.108;2022-09-01T04:55:30;6.10;;;5.70;;
4519;SDS011;2272;49.226;8.108;2022-09-01T04:57:58;6.57;;;5.97;;
4519;SDS011;2272;49.226;8.108;2022-09-01T05:00:26;5.83;;;5.43;;
4519;SDS011;2272;49.226;8.108;2022-09-01T05:02:57;5.97;;;5.07;;
4519;SDS011;2272;49.226;8.108;2022-09-01T05:05:34;9.33;;;6.00;;
4519;SDS011;2272;49.226;8.108;2022-09-01T05:08:06;10.50;;;5.50;;
4519;SDS011;2272;49.226;8.108;2022-09-01T05:10:38;6.00;;;5.50;;
4519;SDS011;2272;49.226;8.108;2022-09-01T05:13:07;9.73;;;5.40;;
4519;SDS011;2272;49.226;8.108;2022-09-01T05:15:37;7.97;;;5.40;;
4519;SDS011;2272;49.226;8.108;2022-09-01T05:18:10;5.93;;;5.53;;
4519;SDS011;2272;49.226;8.108;2022-09-01T05:20:39;57.03;;;6.30;;
4519;SDS011;2272;49.226;8.108;2022-09-01T05:23:08;7.10;;;5.10;;
4519;SDS011;2272;49.226;8.108;2022-09-01T05:25:40;15.30;;;5.67;;
4519;SDS011;2272;49.226;8.108;2022-09-01T05:28:08;6.27;;;5.67;;
4519;SDS011;2272;49.226;8.108;2022-09-01T05:30:37;6.90;;;5.87;;
4519;SDS011;2272;49.226;8.108;2022-09-01T05:33:04;6.40;;;5.73;;
4519;SDS011;2272;49.226;8.108;2022-09-01T05:35:37;9.93;;;5.20;;
4519;SDS011;2272;49.226;8.108;2022-09-01T05:38:09;6.47;;;5.33;;
4519;SDS011;2272;49.226;8.108;2022-09-01T05:40:39;25.40;;;5.97;;
4519;SDS011;2272;49.226;8.108;2022-09-01T05:43:07;6.03;;;5.60;;
4519;SDS011;2272;49.226;8.108;2022-09-01T05:45:37;11.63;;;5.77;;
4519;SDS011;2272;49.226;8.108;2022-09-01T05:48:06;5.70;;;5.30;;
4519;SDS011;2272;49.226;8.108;2022-09-01T05:50:34;5.37;;;4.97;;
4519;SDS011;2272;49.226;8.108;2022-09-01T05:53:02;6.50;;;6.00;;
4519;SDS011;2272;49.226;8.108;2022-09-01T05:55:41;5.70;;;5.30;;
4519;SDS011;2272;49.226;8.108;2022-09-01T05:58:09;6.37;;;5.77;;
4519;SDS011;2272;49.226;8.108;2022-09-01T06:00:38;16.50;;;7.30;;
4519;SDS011;2272;49.226;8.108;2022-09-01T06:03:06;5.93;;;4.97;;
4519;SDS011;2272;49.226;8.108;2022-09-01T06:05:34;5.90;;;5.40;;
4519;SDS011;2272;49.226;8.108;2022-09-01T06:08:02;9.77;;;6.00;;
4519;SDS011;2272;49.226;8.108;2022-09-01T06:10:29;15.20;;;7.03;;
4519;SDS011;2272;49.226;8.108;2022-09-01T06:12:57;14.27;;;7.30;;
4519;SDS011;2272;49.226;8.108;2022-09-01T06:15:26;8.60;;;6.70;;
4519;SDS011;2272;49.226;8.108;2022-09-01T06:17:53;12.60;;;7.33;;
4519;SDS011;2272;49.226;8.108;2022-09-01T06:20:21;8.93;;;7.13;;
4519;SDS011;2272;49.226;8.108;2022-09-01T06:22:47;20.80;;;7.13;;
4519;SDS011;2272;49.226;8.108;2022-09-01T06:25:16;9.40;;;6.63;;
4519;SDS011;2272;49.226;8.108;2022-09-01T06:27:43;5.97;;;5.50;;
4519;SDS011;2272;49.226;8.108;2022-09-01T06:30:13;6.90;;;6.30;;
4519;SDS011;2272;49.226;8.108;2022-09-01T06:32:45;8.87;;;6.70;;
4519;SDS011;2272;49.226;8.108;2022-09-01T06:35:13;5.47;;;5.07;;
4519;SDS011;2272;49.226;8.108;2022-09-01T06:37:42;6.07;;;5.37;;
4519;SDS011;2272;49.226;8.108;2022-09-01T06:40:10;7.30;;;6.40;;
4519;SDS011;2272;49.226;8.108;2022-09-01T06:42:41;8.33;;;7.33;;
4519;SDS011;2272;49.226;8.108;2022-09-01T06:45:09;7.30;;;6.60;;
4519;SDS011;2272;49.226;8.108;2022-09-01T06:47:38;7.70;;;6.40;;
4519;SDS011;2272;49.226;8.108;2022-09-01T06:50:06;8.43;;;5.97;;
4519;SDS011;2272;49.226;8.108;2022-09-01T06:52:33;6.93;;;6.30;;
4519;SDS011;2272;49.226;8.108;2022-09-01T06:55:02;8.10;;;7.30;;
4519;SDS011;2272;49.226;8.108;2022-09-01T06:57:30;7.93;;;7.17;;
4519;SDS011;2272;49.226;8.108;2022-09-01T06:59:56;6.37;;;5.77;;
4519;SDS011;2272;49.226;8.108;2022-09-01T07:02:24;6.87;;;6.37;;
4519;SDS011;2272;49.226;8.108;2022-09-01T07:04:52;12.63;;;6.40;;
4519;SDS011;2272;49.226;8.108;2022-09-01T07:07:19;9.50;;;7.60;;
4519;SDS011;2272;49.226;8.108;2022-09-01T07:09:46;10.03;;;6.60;;
4519;SDS011;2272;49.226;8.108;2022-09-01T07:12:13;6.17;;;5.50;;
4519;SDS011;2272;49.226;8.108;2022-09-01T07:14:44;12.20;;;10.03;;
4519;SDS011;2272;49.226;8.108;2022-09-01T07:17:12;7.67;;;6.97;;
4519;SDS011;2272;49.226;8.108;2022-09-01T07:19:39;11.73;;;7.23;;
4519;SDS011;2272;49.226;8.108;2022-09-01T07:22:08;9.00;;;6.97;;
4519;SDS011;2272;49.226;8.108;2022-09-01T07:24:34;9.10;;;7.77;;
4519;SDS011;2272;49.226;8.108;2022-09-01T07:27:01;7.87;;;7.17;;
4519;SDS011;2272;49.226;8.108;2022-09-01T07:29:28;8.07;;;7.37;;
4519;SDS011;2272;49.226;8.108;2022-09-01T07:31:55;9.77;;;8.77;;
4519;SDS011;2272;49.226;8.108;2022-09-01T07:34:23;8.50;;;7.70;;
4519;SDS011;2272;49.226;8.108;2022-09-01T07:36:50;10.73;;;8.80;;
4519;SDS011;2272;49.226;8.108;2022-09-01T07:39:21;9.23;;;8.37;;
4519;SDS011;2272;49.226;8.108;2022-09-01T07:41:48;11.37;;;8.37;;
4519;SDS011;2272;49.226;8.108;2022-09-01T07:44:15;11.37;;;9.67;;
4519;SDS011;2272;49.226;8.108;2022-09-01T07:46:42;13.53;;;10.83;;
4519;SDS011;2272;49.226;8.108;2022-09-01T07:49:10;10.20;;;9.20;;
4519;SDS011;2272;49.226;8.108;2022-09-01T07:51:36;9.83;;;8.83;;
4519;SDS011;2272;49.226;8.108;2022-09-01T07:54:03;12.50;;;9.40;;
4519;SDS011;2272;49.226;8.108;2022-09-01T07:56:32;8.23;;;7.50;;
4519;SDS011;2272;49.226;8.108;2022-09-01T07:58:59;12.17;;;9.60;;
4519;SDS011;2272;49.226;8.108;2022-09-01T08:01:26;8.17;;;7.37;;
4519;SDS011;2272;49.226;8.108;2022-09-01T08:03:54;27.17;;;8.10;;
4519;SDS011;2272;49.226;8.108;2022-09-01T08:06:24;9.20;;;8.30;;
4519;SDS011;2272;49.226;8.108;2022-09-01T08:08:53;8.90;;;8.13;;
4519;SDS011;2272;49.226;8.108;2022-09-01T08:11:21;17.07;;;10.63;;
4519;SDS011;2272;49.226;8.108;2022-09-01T08:13:51;10.50;;;9.23;;
4519;SDS011;2272;49.226;8.108;2022-09-01T08:16:19;10.63;;;9.53;;
4519;SDS011;2272;49.226;8.108;2022-09-01T08:18:46;12.93;;;9.27;;
4519;SDS011;2272;49.226;8.108;2022-09-01T08:21:14;9.00;;;8.20;;
4519;SDS011;2272;49.226;8.108;2022-09-01T08:23:42;12.30;;;9.37;;
4519;SDS011;2272;49.226;8.108;2022-09-01T08:26:10;10.53;;;9.20;;
4519;SDS011;2272;49.226;8.108;2022-09-01T08:28:39;11.57;;;9.10;;
4519;SDS011;2272;49.226;8.108;2022-09-01T08:31:08;9.87;;;8.90;;
4519;SDS011;2272;49.226;8.108;2022-09-01T08:33:37;9.60;;;8.63;;
4519;SDS011;2272;49.226;8.108;2022-09-01T08:36:06;19.33;;;9.37;;
4519;SDS011;2272;49.226;8.108;2022-09-01T08:38:33;12.87;;;7.87;;
4519;SDS011;2272;49.226;8.108;2022-09-01T08:41:01;7.40;;;6.77;;
4519;SDS011;2272;49.226;8.108;2022-09-01T08:43:35;8.57;;;7.77;;
4519;SDS011;2272;49.226;8.108;2022-09-01T08:46:13;11.00;;;8.80;;
4519;SDS011;2272;49.226;8.108;2022-09-01T08:48:45;10.20;;;9.07;;
4519;SDS011;2272;49.226;8.108;2022-09-01T08:51:18;10.57;;;8.57;;
4519;SDS011;2272;49.226;8.108;2022-09-01T08:53:51;14.80;;;8.80;;
4519;SDS011;2272;49.226;8.108;2022-09-01T08:56:24;9.30;;;8.40;;
4519;SDS011;2272;49.226;8.108;2022-09-01T08:58:51;9.97;;;8.87;;
4519;SDS011;2272;49.226;8.108;2022-09-01T09:01:21;10.20;;;9.30;;
4519;SDS011;2272;49.226;8.108;2022-09-01T09:04:00;10.60;;;7.97;;
4519;SDS011;2272;49.226;8.108;2022-09-01T09:06:35;33.57;;;9.67;;
4519;SDS011;2272;49.226;8.108;2022-09-01T09:09:07;11.33;;;9.47;;
4519;SDS011;2272;49.226;8.108;2022-09-01T09:11:40;9.13;;;8.23;;
4519;SDS011;2272;49.226;8.108;2022-09-01T09:14:20;7.00;;;6.40;;
4519;SDS011;2272;49.226;8.108;2022-09-01T09:17:03;7.20;;;6.50;;
4519;SDS011;2272;49.226;8.108;2022-09-01T09:19:31;7.20;;;6.50;;
4519;SDS011;2272;49.226;8.108;2022-09-01T09:22:01;9.07;;;7.80;;
4519;SDS011;2272;49.226;8.108;2022-09-01T09:24:31;12.63;;;8.20;;
4519;SDS011;2272;49.226;8.108;2022-09-01T09:27:15;8.50;;;7.10;;
4519;SDS011;2272;49.226;8.108;2022-09-01T09:29:44;7.73;;;7.03;;
4519;SDS011;2272;49.226;8.108;2022-09-01T09:32:13;9.40;;;7.70;;
4519;SDS011;2272;49.226;8.108;2022-09-01T09:34:40;7.70;;;6.97;;
4519;SDS011;2272;49.226;8.108;2022-09-01T09:37:25;7.97;;;7.27;;
4519;SDS011;2272;49.226;8.108;2022-09-01T09:40:04;7.87;;;6.37;;
4519;SDS011;2272;49.226;8.108;2022-09-01T09:42:39;6.27;;;5.80;;
4519;SDS011;2272;49.226;8.108;2022-09-01T09:45:15;7.77;;;7.00;;
4519;SDS011;2272;49.226;8.108;2022-09-01T09:47:50;10.30;;;6.43;;
4519;SDS011;2272;49.226;8.108;2022-09-01T09:50:20;10.60;;;8.00;;
4519;SDS011;2272;49.226;8.108;2022-09-01T09:52:49;8.90;;;5.80;;
4519;SDS011;2272;49.226;8.108;2022-09-01T09:55:22;9.13;;;7.50;;
4519;SDS011;2272;49.226;8.108;2022-09-01T09:57:52;9.03;;;6.90;;
4519;SDS011;2272;49.226;8.108;2022-09-01T10:00:22;7.13;;;6.43;;
4519;SDS011;2272;49.226;8.108;2022-09-01T10:02:54;6.43;;;5.90;;
4519;SDS011;2272;49.226;8.108;2022-09-01T10:05:25;7.40;;;6.80;;
4519;SDS011;2272;49.226;8.108;2022-09-01T10:07:55;7.00;;;5.60;;
4519;SDS011;2272;49.226;8.108;2022-09-01T10:10:30;6.60;;;6.10;;
4519;SDS011;2272;49.226;8.108;2022-09-01T10:13:03;7.57;;;6.70;;
4519;SDS011;2272;49.226;8.108;2022-09-01T10:15:33;6.60;;;6.10;;
4519;SDS011;2272;49.226;8.108;2022-09-01T10:18:03;6.17;;;5.57;;
4519;SDS011;2272;49.226;8.108;2022-09-01T10:20:36;5.60;;;5.10;;
4519;SDS011;2272;49.226;8.108;2022-09-01T10:23:04;13.90;;;5.67;;
4519;SDS011;2272;49.226;8.108;2022-09-01T10:25:32;12.23;;;10.33;;
4519;SDS011;2272;49.226;8.108;2022-09-01T10:28:03;5.97;;;5.47;;
4519;SDS011;2272;49.226;8.108;2022-09-01T10:30:35;9.73;;;6.50;;
4519;SDS011;2272;49.226;8.108;2022-09-01T10:33:08;7.20;;;6.50;;
4519;SDS011;2272;49.226;8.108;2022-09-01T10:35:36;6.83;;;6.23;;
4519;SDS011;2272;49.226;8.108;2022-09-01T10:38:07;6.00;;;5.47;;
4519;SDS011;2272;49.226;8.108;2022-09-01T10:40:39;6.30;;;5.80;;
4519;SDS011;2272;49.226;8.108;2022-09-01T10:43:26;6.73;;;6.17;;
4519;SDS011;2272;49.226;8.108;2022-09-01T10:45:58;6.20;;;5.60;;
4519;SDS011;2272;49.226;8.108;2022-09-01T10:48:28;6.30;;;5.70;;
4519;SDS011;2272;49.226;8.108;2022-09-01T10:54:01;5.43;;;5.03;;
4519;SDS011;2272;49.226;8.108;2022-09-01T10:56:36;9.63;;;4.97;;
4519;SDS011;2272;49.226;8.108;2022-09-01T10:59:06;5.70;;;5.10;;
4519;SDS011;2272;49.226;8.108;2022-09-01T11:07:31;6.70;;;5.17;;
4519;SDS011;2272;49.226;8.108;2022-09-01T11:10:08;5.37;;;4.63;;
4519;SDS011;2272;49.226;8.108;2022-09-01T11:12:50;5.17;;;4.77;;
4519;SDS011;2272;49.226;8.108;2022-09-01T11:15:33;4.73;;;4.40;;
4519;SDS011;2272;49.226;8.108;2022-09-01T11:18:07;8.03;;;4.40;;
4519;SDS011;2272;49.226;8.108;2022-09-01T11:20:36;6.27;;;5.23;;
4519;SDS011;2272;49.226;8.108;2022-09-01T11:23:06;7.73;;;5.00;;
4519;SDS011;2272;49.226;8.108;2022-09-01T11:25:38;6.87;;;4.73;;
4519;SDS011;2272;49.226;8.108;2022-09-01T11:31:13;8.03;;;4.50;;
4519;SDS011;2272;49.226;8.108;2022-09-01T11:34:00;5.60;;;5.10;;
4519;SDS011;2272;49.226;8.108;2022-09-01T11:36:54;4.97;;;4.57;;
4519;SDS011;2272;49.226;8.108;2022-09-01T11:39:33;5.10;;;4.40;;
4519;SDS011;2272;49.226;8.108;2022-09-01T11:42:08;5.20;;;4.80;;
4519;SDS011;2272;49.226;8.108;2022-09-01T11:44:39;5.23;;;4.93;;
4519;SDS011;2272;49.226;8.108;2022-09-01T11:47:12;5.70;;;5.20;;
4519;SDS011;2272;49.226;8.108;2022-09-01T11:49:49;5.77;;;5.27;;
4519;SDS011;2272;49.226;8.108;2022-09-01T11:52:19;5.27;;;4.77;;
4519;SDS011;2272;49.226;8.108;2022-09-01T11:54:49;4.27;;;3.97;;
4519;SDS011;2272;49.226;8.108;2022-09-01T11:57:17;5.43;;;5.10;;
4519;SDS011;2272;49.226;8.108;2022-09-01T11:59:46;9.50;;;4.90;;
4519;SDS011;2272;49.226;8.108;2022-09-01T12:02:16;5.67;;;4.87;;
4519;SDS011;2272;49.226;8.108;2022-09-01T12:04:45;4.43;;;4.13;;
4519;SDS011;2272;49.226;8.108;2022-09-01T12:07:13;6.83;;;4.70;;
4519;SDS011;2272;49.226;8.108;2022-09-01T12:10:07;5.27;;;4.40;;
4519;SDS011;2272;49.226;8.108;2022-09-01T12:12:40;5.03;;;4.00;;
4519;SDS011;2272;49.226;8.108;2022-09-01T12:15:08;5.37;;;4.40;;
4519;SDS011;2272;49.226;8.108;2022-09-01T12:17:42;4.53;;;4.23;;
4519;SDS011;2272;49.226;8.108;2022-09-01T12:20:18;4.60;;;4.27;;
4519;SDS011;2272;49.226;8.108;2022-09-01T12:22:57;4.87;;;4.57;;
4519;SDS011;2272;49.226;8.108;2022-09-01T12:25:28;4.57;;;4.20;;
4519;SDS011;2272;49.226;8.108;2022-09-01T12:27:58;4.10;;;3.80;;
4519;SDS011;2272;49.226;8.108;2022-09-01T12:30:26;3.53;;;3.33;;
4519;SDS011;2272;49.226;8.108;2022-09-01T12:32:54;5.10;;;3.60;;
4519;SDS011;2272;49.226;8.108;2022-09-01T12:35:32;4.07;;;3.40;;
4519;SDS011;2272;49.226;8.108;2022-09-01T12:40:49;3.47;;;3.23;;
4519;SDS011;2272;49.226;8.108;2022-09-01T12:43:30;3.73;;;3.53;;
4519;SDS011;2272;49.226;8.108;2022-09-01T12:46:02;4.03;;;3.70;;
4519;SDS011;2272;49.226;8.108;2022-09-01T12:48:31;3.70;;;3.40;;
4519;SDS011;2272;49.226;8.108;2022-09-01T12:51:00;5.23;;;4.23;;
4519;SDS011;2272;49.226;8.108;2022-09-01T12:53:29;4.40;;;4.00;;
4519;SDS011;2272;49.226;8.108;2022-09-01T12:56:01;4.30;;;4.00;;
4519;SDS011;2272;49.226;8.108;2022-09-01T12:58:42;3.67;;;3.50;;
4519;SDS011;2272;49.226;8.108;2022-09-01T13:01:22;10.40;;;4.10;;
4519;SDS011;2272;49.226;8.108;2022-09-01T13:04:06;4.13;;;3.93;;
4519;SDS011;2272;49.226;8.108;2022-09-01T13:06:35;3.83;;;3.63;;
4519;SDS011;2272;49.226;8.108;2022-09-01T13:09:02;6.37;;;4.27;;
4519;SDS011;2272;49.226;8.108;2022-09-01T13:11:30;4.67;;;4.27;;
4519;SDS011;2272;49.226;8.108;2022-09-01T13:13:58;7.40;;;4.60;;
4519;SDS011;2272;49.226;8.108;2022-09-01T13:16:25;4.00;;;3.80;;
4519;SDS011;2272;49.226;8.108;2022-09-01T13:18:52;4.27;;;3.87;;
4519;SDS011;2272;49.226;8.108;2022-09-01T13:21:19;4.10;;;3.80;;
4519;SDS011;2272;49.226;8.108;2022-09-01T13:23:45;4.00;;;3.70;;
4519;SDS011;2272;49.226;8.108;2022-09-01T13:26:13;4.30;;;4.00;;
4519;SDS011;2272;49.226;8.108;2022-09-01T13:28:42;3.73;;;3.40;;
4519;SDS011;2272;49.226;8.108;2022-09-01T13:31:09;4.53;;;4.33;;
4519;SDS011;2272;49.226;8.108;2022-09-01T13:33:36;4.60;;;4.20;;
4519;SDS011;2272;49.226;8.108;2022-09-01T13:36:03;4.17;;;3.87;;
4519;SDS011;2272;49.226;8.108;2022-09-01T13:38:30;3.87;;;3.67;;
4519;SDS011;2272;49.226;8.108;2022-09-01T13:40:57;4.43;;;3.93;;
4519;SDS011;2272;49.226;8.108;2022-09-01T13:43:25;3.80;;;3.60;;
4519;SDS011;2272;49.226;8.108;2022-09-01T13:45:54;3.87;;;3.57;;
4519;SDS011;2272;49.226;8.108;2022-09-01T13:48:21;4.00;;;3.80;;
4519;SDS011;2272;49.226;8.108;2022-09-01T13:50:49;4.90;;;4.50;;
4519;SDS011;2272;49.226;8.108;2022-09-01T13:53:17;6.00;;;4.13;;
4519;SDS011;2272;49.226;8.108;2022-09-01T13:55:45;4.10;;;3.90;;
4519;SDS011;2272;49.226;8.108;2022-09-01T13:58:12;9.60;;;4.20;;
4519;SDS011;2272;49.226;8.108;2022-09-01T14:00:40;4.03;;;3.73;;
4519;SDS011;2272;49.226;8.108;2022-09-01T14:03:11;6.53;;;4.30;;
4519;SDS011;2272;49.226;8.108;2022-09-01T14:05:39;4.80;;;4.13;;
4519;SDS011;2272;49.226;8.108;2022-09-01T14:08:09;4.80;;;4.30;;
4519;SDS011;2272;49.226;8.108;2022-09-01T14:10:38;5.20;;;4.33;;
4519;SDS011;2272;49.226;8.108;2022-09-01T14:13:07;8.40;;;4.83;;
4519;SDS011;2272;49.226;8.108;2022-09-01T14:15:34;4.60;;;4.20;;
4519;SDS011;2272;49.226;8.108;2022-09-01T14:18:02;10.73;;;4.13;;
4519;SDS011;2272;49.226;8.108;2022-09-01T14:20:31;6.43;;;4.70;;
4519;SDS011;2272;49.226;8.108;2022-09-01T14:23:00;13.63;;;4.27;;
4519;SDS011;2272;49.226;8.108;2022-09-01T14:25:28;5.53;;;3.33;;
4519;SDS011;2272;49.226;8.108;2022-09-01T14:27:57;4.43;;;4.03;;
4519;SDS011;2272;49.226;8.108;2022-09-01T14:30:26;9.87;;;3.87;;
4519;SDS011;2272;49.226;8.108;2022-09-01T14:32:54;3.87;;;3.60;;
4519;SDS011;2272;49.226;8.108;2022-09-01T14:35:22;4.13;;;3.93;;
4519;SDS011;2272;49.226;8.108;2022-09-01T14:37:51;4.30;;;4.03;;
4519;SDS011;2272;49.226;8.108;2022-09-01T14:40:19;4.17;;;3.87;;
4519;SDS011;2272;49.226;8.108;2022-09-01T14:42:48;4.47;;;4.17;;
4519;SDS011;2272;49.226;8.108;2022-09-01T14:45:17;4.20;;;3.90;;
4519;SDS011;2272;49.226;8.108;2022-09-01T14:47:47;4.50;;;4.23;;
4519;SDS011;2272;49.226;8.108;2022-09-01T14:50:15;3.73;;;3.53;;
4519;SDS011;2272;49.226;8.108;2022-09-01T14:52:44;3.80;;;3.50;;
4519;SDS011;2272;49.226;8.108;2022-09-01T14:55:12;4.73;;;4.30;;
4519;SDS011;2272;49.226;8.108;2022-09-01T14:57:39;4.47;;;4.17;;
4519;SDS011;2272;49.226;8.108;2022-09-01T15:00:07;3.60;;;3.40;;
4519;SDS011;2272;49.226;8.108;2022-09-01T15:02:37;3.83;;;3.63;;
4519;SDS011;2272;49.226;8.108;2022-09-01T15:05:04;4.87;;;4.47;;
4519;SDS011;2272;49.226;8.108;2022-09-01T15:07:31;2.77;;;2.60;;
4519;SDS011;2272;49.226;8.108;2022-09-01T15:09:58;3.43;;;3.23;;
4519;SDS011;2272;49.226;8.108;2022-09-01T15:12:26;3.50;;;3.30;;
4519;SDS011;2272;49.226;8.108;2022-09-01T15:14:54;2.90;;;2.80;;
4519;SDS011;2272;49.226;8.108;2022-09-01T15:17:21;2.97;;;2.77;;
4519;SDS011;2272;49.226;8.108;2022-09-01T15:19:48;3.20;;;3.07;;
4519;SDS011;2272;49.226;8.108;2022-09-01T15:22:15;4.20;;;3.47;;
4519;SDS011;2272;49.226;8.108;2022-09-01T15:24:42;3.80;;;3.50;;
4519;SDS011;2272;49.226;8.108;2022-09-01T15:27:09;4.23;;;3.37;;
4519;SDS011;2272;49.226;8.108;2022-09-01T15:29:38;3.07;;;2.97;;
4519;SDS011;2272;49.226;8.108;2022-09-01T15:32:09;3.47;;;2.63;;
4519;SDS011;2272;49.226;8.108;2022-09-01T15:34:36;3.67;;;3.47;;
4519;SDS011;2272;49.226;8.108;2022-09-01T15:37:03;3.07;;;2.97;;
4519;SDS011;2272;49.226;8.108;2022-09-01T15:39:30;3.50;;;3.30;;
4519;SDS011;2272;49.226;8.108;2022-09-01T15:41:58;4.53;;;3.63;;
4519;SDS011;2272;49.226;8.108;2022-09-01T15:44:25;3.13;;;2.77;;